CYWG/YWG METAR and TAF weather

Enter ICAO airport designator
Station Type Date Time Source
CYWG METAR 2022/01/29 00:00 UTC NOAA

CYWG 290000Z 16005KT 15SM BKN026 BKN210 M16/M19 A3018 RMK SC7CI1 CI TR SLP248


Station Type Date Time Source
CYWG Decoded METAR 2022/01/29 00:00 UTC NOAA

Winnipeg Int. Airportman., Canada (CYWG) 49-54N 097-14W 239M
Jan 28, 2022 - 07:00 PM EST / 2022.01.29 0000 UTC
Wind: from the SSE (160 degrees) at 6 MPH (5 KT):0
Visibility: 15 mile(s):0
Sky conditions: mostly cloudy
Temperature: 3 F (-16 C)
Windchill: -7 F (-22 C):2
Dew Point: -2 F (-19 C)
Relative Humidity: 77%
Pressure (altimeter): 30.18 in. Hg (1022 hPa)
ob: CYWG 290000Z 16005KT 15SM BKN026 BKN210 M16/M19 A3018 RMK SC7CI1 CI TR SLP248
cycle: 0

Station Type Date Time Source
CYWG TAF 2022/01/28 18:42 UTC NOAA

TAF TAF CYWG 281740Z 2818/2918 30005KT P6SM FEW120 BKN250
BECMG 2819/2821 VRB03KT
FM282300 15005KT P6SM BKN120 BKN220
FM290300 17010KT P6SM BKN025 OVC120
TEMPO 2904/2907 OVC020
BECMG 2905/2907 18015KT
FM290700 18015KT P6SM SCT006 OVC012
TEMPO 2907/2915 4SM BR OVC006
BECMG 2912/2914 20008KT
FM291500 32012KT P6SM BKN012 OVC020
FM291700 33015KT P6SM OVC020
TEMPO 2917/2918 BKN025
RMK NXT FCST BY 290000Z

Example: see airport list